5 day graph

You are here

Error message

  • Notice: Trying to access array offset on value of type int in DrupalRequestSanitizer::stripDangerousValues() (line 102 of /home/twolittl/public_html/cms/includes/request-sanitizer.inc).
  • Notice: Trying to access array offset on value of type int in DrupalRequestSanitizer::stripDangerousValues() (line 102 of /home/twolittl/public_html/cms/includes/request-sanitizer.inc).
  • Notice: Trying to access array offset on value of type int in DrupalRequestSanitizer::stripDangerousValues() (line 102 of /home/twolittl/public_html/cms/includes/request-sanitizer.inc).
  • Notice: Trying to access array offset on value of type int in DrupalRequestSanitizer::stripDangerousValues() (line 102 of /home/twolittl/public_html/cms/includes/request-sanitizer.inc).
  • Notice: Trying to access array offset on value of type int in DrupalRequestSanitizer::stripDangerousValues() (line 102 of /home/twolittl/public_html/cms/includes/request-sanitizer.inc).
  • Notice: Trying to access array offset on value of type int in DrupalRequestSanitizer::stripDangerousValues() (line 102 of /home/twolittl/public_html/cms/includes/request-sanitizer.inc).
  • Notice: Trying to access array offset on value of type int in DrupalRequestSanitizer::stripDangerousValues() (line 102 of /home/twolittl/public_html/cms/includes/request-sanitizer.inc).
  • Notice: Trying to access array offset on value of type int in DrupalRequestSanitizer::stripDangerousValues() (line 102 of /home/twolittl/public_html/cms/includes/request-sanitizer.inc).
  • Notice: Trying to access array offset on value of type int in DrupalRequestSanitizer::stripDangerousValues() (line 102 of /home/twolittl/public_html/cms/includes/request-sanitizer.inc).
  • Notice: Trying to access array offset on value of type int in DrupalRequestSanitizer::stripDangerousValues() (line 102 of /home/twolittl/public_html/cms/includes/request-sanitizer.inc).
  • Deprecated function: Function get_magic_quotes_gpc() is deprecated in phpMyEdit->get_cgi_var() (line 1773 of /home/twolittl/public_html/phpMyEdit.class.php).
  • Deprecated function: implode(): Passing glue string after array is deprecated. Swap the parameters in drupal_get_feeds() (line 394 of /home/twolittl/public_html/cms/includes/common.inc).

Hive Data

Page: 1 of 16645  Records: 998690

Row Date Time Hive Temp Hive Humidity Outside Temp Outside Humidity Bottom Board Temp Outside Wall Temp Electronics Temp Light Levels inHG Fan Heat Cover Notes
Clear Sorted By: Light Levels descending, Heat ascending, Outside Wall Temp ascending, Row descending
View 259250 Nov 24 2014 11:34:20am 57.92 88 45.68 81 42.35 43.7 59 996 29.56 0 0 0 NA
View 259277 Nov 24 2014 12:01:46pm 56.48 74 45.5 80 43.25 44.15 59 996 29.54 0 0 0 NA
View 259263 Nov 24 2014 11:47:33am 56.66 74 45.68 81 42.8 44.15 59 996 29.55 0 0 0 NA
View 259248 Nov 24 2014 11:32:19am 58.1 92 45.5 82 42.35 43.7 59 995 29.56 0 0 0 NA
View 259247 Nov 24 2014 11:31:18am 58.28 92 45.5 81 42.35 43.7 59 995 29.56 0 0 0 NA
View 259243 Nov 24 2014 11:27:14am 58.82 95 45.32 82 42.35 43.7 57.2 995 29.56 0 0 0 NA
View 259284 Nov 24 2014 12:08:54pm 56.48 72 45.68 80 43.25 44.15 59 995 29.53 0 0 0 NA
View 259279 Nov 24 2014 12:03:49pm 56.3 75 45.68 80 43.25 44.15 59 995 29.54 0 0 0 NA
View 259278 Nov 24 2014 12:02:47pm 56.48 75 45.5 80 43.25 44.15 59 995 29.54 0 0 0 NA
View 259274 Nov 24 2014 11:58:43am 56.48 77 45.5 80 43.25 44.15 59 995 29.54 0 0 0 NA
View 259268 Nov 24 2014 11:52:38am 56.48 76 45.5 80 42.8 44.15 59 995 29.55 0 0 0 NA
View 259267 Nov 24 2014 11:51:37am 56.66 76 45.5 80 42.8 44.15 59 995 29.55 0 0 0 NA
View 259265 Nov 24 2014 11:49:34am 56.66 75 45.68 80 42.8 44.15 59 995 29.54 0 0 0 NA
View 259264 Nov 24 2014 11:48:34am 56.66 75 45.68 81 42.8 44.15 59 995 29.55 0 0 0 NA
View 259253 Nov 24 2014 11:37:24am 57.56 80 45.68 81 42.8 44.15 59 995 29.56 0 0 0 NA
View 259305 Nov 24 2014 12:30:15pm 56.48 64 46.04 81 43.7 44.6 59 995 29.52 0 0 0 NA
View 259246 Nov 24 2014 11:30:16am 58.28 92 45.5 81 42.35 43.7 59 994 29.56 0 0 0 NA
View 259245 Nov 24 2014 11:29:16am 58.46 93 45.5 81 42.35 43.7 59 994 29.56 0 0 0 NA
View 259244 Nov 24 2014 11:28:15am 58.64 94 45.32 82 42.35 43.7 59 994 29.56 0 0 0 NA
View 259241 Nov 24 2014 11:25:12am 58.64 95 45.32 82 42.35 43.7 57.2 994 29.56 0 0 0 NA
View 259281 Nov 24 2014 12:05:51pm 56.48 74 45.68 80 43.25 44.15 59 994 29.54 0 0 0 NA
View 259276 Nov 24 2014 12:00:46pm 56.48 74 45.5 80 43.25 44.15 59 994 29.54 0 0 0 NA
View 259275 Nov 24 2014 11:59:45am 56.48 77 45.5 81 43.25 44.15 59 994 29.54 0 0 0 NA
View 259273 Nov 24 2014 11:57:42am 56.48 76 45.5 81 43.25 44.15 59 994 29.55 0 0 0 NA
View 259272 Nov 24 2014 11:56:42am 56.48 76 45.5 81 43.25 44.15 59 994 29.55 0 0 0 NA
View 259271 Nov 24 2014 11:55:41am 56.48 76 45.5 81 43.25 44.15 59 994 29.54 0 0 0 NA
View 259270 Nov 24 2014 11:54:40am 56.48 75 45.5 80 42.8 44.15 59 994 29.54 0 0 0 NA
View 259269 Nov 24 2014 11:53:38am 56.48 73 45.5 81 42.8 44.15 59 994 29.55 0 0 0 NA
View 259266 Nov 24 2014 11:50:36am 56.66 76 45.68 80 42.8 44.15 59 994 29.55 0 0 0 NA
View 259262 Nov 24 2014 11:46:32am 56.84 76 45.68 81 42.8 44.15 59 994 29.55 0 0 0 NA
View 259261 Nov 24 2014 11:45:30am 56.84 76 45.68 80 42.8 44.15 59 994 29.55 0 0 0 NA
View 259260 Nov 24 2014 11:44:31am 56.84 76 45.86 81 42.8 44.15 59 994 29.55 0 0 0 NA
View 259258 Nov 24 2014 11:42:28am 57.02 76 45.68 81 42.8 44.15 59 994 29.56 0 0 0 NA
View 259255 Nov 24 2014 11:39:25am 57.2 77 45.86 81 42.8 44.15 59 994 29.56 0 0 0 NA
View 259252 Nov 24 2014 11:36:23am 57.56 83 45.86 81 42.8 44.15 59 994 29.56 0 0 0 NA
View 259301 Nov 24 2014 12:26:11pm 56.66 66 46.04 82 43.7 44.6 59 994 29.53 0 0 0 NA
View 259296 Nov 24 2014 12:21:05pm 56.66 72 45.86 83 43.7 44.6 59 994 29.53 0 0 0 NA
View 259294 Nov 24 2014 12:19:03pm 56.66 73 45.86 82 43.7 44.6 59 994 29.53 0 0 0 NA
View 259291 Nov 24 2014 12:16:00pm 56.66 78 45.68 81 43.25 44.6 59 994 29.53 0 0 0 NA
View 259280 Nov 24 2014 12:04:50pm 56.48 75 45.68 81 43.25 44.6 59 994 29.54 0 0 0 NA
View 259242 Nov 24 2014 11:26:12am 58.64 95 45.32 82 42.35 43.7 57.2 993 29.56 0 0 0 NA
View 259289 Nov 24 2014 12:13:59pm 56.66 78 45.68 80 43.25 44.15 59 993 29.53 0 0 0 NA
View 259288 Nov 24 2014 12:12:58pm 56.48 78 45.86 80 43.25 44.15 59 993 29.53 0 0 0 NA
View 259287 Nov 24 2014 12:11:56pm 56.48 77 45.68 80 43.25 44.15 59 993 29.53 0 0 0 NA
View 259286 Nov 24 2014 12:10:55pm 56.48 76 45.68 80 43.25 44.15 59 993 29.53 0 0 0 NA
View 259285 Nov 24 2014 12:09:55pm 56.48 74 45.68 80 43.25 44.15 59 993 29.54 0 0 0 NA
View 259282 Nov 24 2014 12:06:51pm 56.3 70 45.68 81 43.25 44.15 59 993 29.54 0 0 0 NA
View 259259 Nov 24 2014 11:43:29am 57.02 76 45.68 80 42.8 44.15 59 993 29.55 0 0 0 NA
View 259257 Nov 24 2014 11:41:28am 57.02 77 45.86 81 42.8 44.15 59 993 29.55 0 0 0 NA
View 259256 Nov 24 2014 11:40:27am 57.2 77 45.68 81 42.8 44.15 59 993 29.56 0 0 0 NA
View 259254 Nov 24 2014 11:38:24am 57.38 77 45.86 81 42.8 44.15 59 993 29.56 0 0 0 NA
View 259306 Nov 24 2014 12:31:14pm 56.48 66 46.22 82 43.7 44.6 59 993 29.53 0 0 0 NA
View 259303 Nov 24 2014 12:28:12pm 56.66 65 46.04 82 43.7 44.6 59 993 29.53 0 0 0 NA
View 259302 Nov 24 2014 12:27:11pm 56.66 66 46.04 82 43.7 44.6 59 993 29.53 0 0 0 NA
View 259300 Nov 24 2014 12:25:09pm 56.66 66 45.86 82 43.7 44.6 59 993 29.53 0 0 0 NA
View 259299 Nov 24 2014 12:24:08pm 56.66 69 45.86 82 43.7 44.6 59 993 29.53 0 0 0 NA
View 259298 Nov 24 2014 12:23:07pm 56.48 72 45.86 83 43.7 44.6 59 993 29.53 0 0 0 NA
View 259297 Nov 24 2014 12:22:07pm 56.66 73 45.86 83 43.7 44.6 59 993 29.52 0 0 0 NA
View 259295 Nov 24 2014 12:20:04pm 56.66 73 45.86 83 43.7 44.6 59 993 29.53 0 0 0 NA
View 259293 Nov 24 2014 12:18:03pm 56.66 75 45.86 81 43.25 44.6 59 993 29.53 0 0 0 NA